CheckWX is a tool to help pilots better visualize weather data.  It is not intended as a substitute for an official pre-flight weather briefing.

10:08:49 UTC

LEHC TAF
Huesca / Pirineos Airport
Monflorite/Alcalá del Obispo, Spain
TAF LEHC 260800Z 2609/2709 12019KT CAVOK TX37/2614Z TN22/2705Z TEMPO 2609/2620 12021G31KT BECMG 2622/2624 08009KT

Jun-26@
09:00 UTC

Jun-26 @ 09:00 UTC

Jun-26@
22:00 UTC

Jun-26 @ 22:00 UTC

TAF LEHC 260800Z 2609/2709 12019KT CAVOK TX37/2614Z TN22/2705Z
Wind
  • 120° at 19 KTS
Cloud Levels
  • No significant clouds

Jun-26@
09:00 UTC

Jun-26 @ 09:00 UTC

Jun-26@
20:00 UTC

Jun-26 @ 20:00 UTC

TEMPO 2609/2620 12021G31KT

Temporary

Temporary Changes expected for less than half the time period

Wind
  • 120° at 21 KTS
  • {Gusting to 31 KTS

Jun-26@
22:00 UTC

Jun-26 @ 22:00 UTC

Jun-27@
09:00 UTC

Jun-27 @ 09:00 UTC

BECMG 2622/2624 08009KT

Becoming

Becoming Conditions expected by Thu, Jun 27, 2019 @ 00:00 UTC

Wind
  • 080° at 9 KTS
Cloud Levels
  • No significant clouds